Tracy, Missouri
Current Conditions -  °F | °C
As of 12:18 AM on Saturday 20 Dec 2014 (Local Time) from KMCI Reporting Station
Haze Haze  
Wind Chill:   Ceiling: 1700
Heat Index:   Visibility: 4mi
Dew Point: -1°   Wind: 3mph
Humidity: 96%   Direction: 240°WSW
Pressure: 30.21"   Gusts: NA
Location:  39.3588°N, 94.8136°W
Report Text: KMCI 200618Z 24003KT 4SM BR SCT007 OVC017 00/M01 A3021 RMK AO2 T00001006 $
Loading
Personal Weather Stations






























Interactive Weather Map New forecast layout! Learn more

10-Day Weather Forecast

Advertisements
Track Severe Weather on mobile